Main page
METAR-TAF:

METAR-TAF

Airports :

Prague, Czech Republic

Kbely

latitude: 50-07-17N, longitude: 14-32-37E, elevation: 286 m

Current weather observation

The report was made 48 minutes ago, at 22:00 UTC
Wind 4 kt from the South, varying between South and Northwest
Temperature 8°C
Humidity 66%
Pressure 1019 hPa
Visibility 10 km or more
no clouds below 1500 m and no cumulonimbus

METAR: LKKB 262200Z 19004KT 170V310 CAVOK 08/02 Q1019

Time: 00:48 (22:48 UTC)

Forecast

The report was made 5 hours and 48 minutes ago, at 17:00 UTC
Forecast valid from 26 at 18 UTC to 27 at 18 UTC
Wind 13 kt from the Northwest
Visibility 10 km or more
no clouds below 1500 m and no cumulonimbus
Becoming
from 26 at 18 UTC to 26 at 20 UTC
Wind 6 kt from the West
Becoming
from 26 at 20 UTC to 26 at 22 UTC
Wind 2 kt from variable directions
Becoming
from 27 at 07 UTC to 27 at 09 UTC
Wind 7 kt from the South/Southeast

TAF: LKKB 261700Z 2618/2718 31013KT CAVOK BECMG 2618/2620 28006KT BECMG 2620/2622 VRB02KT BECMG 2707/2709 16007KT

Weather observations and forecasts of more than 4000 airports (METAR and TAF reports).

The available stations are represented by yellow and red dots on the map.

Hover mouse over dot to see the name of the station.

Then click to see weather observations and forecasts.

To change the map : click on the green buttons with a black cross to zoom in, on the green button with a dash to zoom out, or on the green arrows for adjacent maps.


METAR-TAF: